createdAt,value
2022-10-31T00:01:11.367Z,57.53
2022-10-31T00:03:37.857Z,57.91
2022-10-31T00:06:04.692Z,57.82
2022-10-31T00:08:32.633Z,58.11
2022-10-31T00:10:59.158Z,58.53
2022-10-31T00:13:25.841Z,58.89
2022-10-31T00:15:52.426Z,59.20
2022-10-31T00:18:19.082Z,59.85
2022-10-31T00:20:45.697Z,60.07
2022-10-31T00:23:12.712Z,60.08
2022-10-31T00:25:41.185Z,59.50
2022-10-31T00:28:12.087Z,59.60
2022-10-31T00:30:38.746Z,59.09
2022-10-31T00:33:05.326Z,58.71
2022-10-31T00:35:32.266Z,57.85
2022-10-31T00:37:58.835Z,57.86
2022-10-31T00:40:25.629Z,57.58
2022-10-31T00:42:53.622Z,57.10
2022-10-31T00:45:20.229Z,57.15
2022-10-31T00:47:47.013Z,57.07
2022-10-31T00:50:13.585Z,56.92
2022-10-31T00:52:40.134Z,56.92
2022-10-31T00:55:07.346Z,56.90
2022-10-31T00:57:33.859Z,56.65
2022-10-31T01:00:01.729Z,56.79
2022-10-31T01:02:28.423Z,56.94
2022-10-31T01:04:55.387Z,56.79
2022-10-31T01:07:22.002Z,56.86
2022-10-31T01:09:48.585Z,56.74
2022-10-31T01:12:15.296Z,56.79
2022-10-31T01:14:44.199Z,57.09
2022-10-31T01:17:12.186Z,56.90
2022-10-31T01:19:38.876Z,56.83
2022-10-31T01:22:05.540Z,57.17
2022-10-31T01:24:32.339Z,57.12
2022-10-31T01:26:58.986Z,57.08
2022-10-31T01:29:25.635Z,57.32
2022-10-31T01:31:52.156Z,57.15
2022-10-31T01:34:20.515Z,57.42
2022-10-31T01:36:47.298Z,57.65
2022-10-31T01:39:15.929Z,58.07
2022-10-31T01:41:45.489Z,58.24
2022-10-31T01:44:48.753Z,58.33
2022-10-31T01:47:20.847Z,58.93
2022-10-31T01:49:52.085Z,59.03
2022-10-31T01:52:24.236Z,59.03
2022-10-31T01:54:54.952Z,59.35
2022-10-31T01:57:22.852Z,59.78
2022-10-31T01:59:52.862Z,59.69
2022-10-31T02:02:20.293Z,59.84
2022-10-31T02:04:48.858Z,60.16
2022-10-31T02:07:19.716Z,60.31
2022-10-31T02:09:48.629Z,60.38
2022-10-31T02:12:17.133Z,60.36
2022-10-31T02:14:43.863Z,60.56
2022-10-31T02:17:10.822Z,60.78
2022-10-31T02:19:48.558Z,60.56
2022-10-31T02:22:23.000Z,61.05
2022-10-31T02:25:03.419Z,61.26
2022-10-31T02:27:52.918Z,61.24
2022-10-31T02:30:22.492Z,61.14
2022-10-31T02:33:02.309Z,61.84
2022-10-31T02:35:41.467Z,61.16
2022-10-31T02:38:22.136Z,61.71
2022-10-31T02:40:54.204Z,61.79
2022-10-31T02:43:27.786Z,62.20
2022-10-31T02:46:00.191Z,62.14
2022-10-31T02:48:30.242Z,62.20
2022-10-31T02:50:58.921Z,61.82
2022-10-31T02:53:25.481Z,61.97
2022-10-31T02:56:05.560Z,61.62
2022-10-31T02:58:37.587Z,61.24
2022-10-31T03:01:36.234Z,60.74
2022-10-31T03:04:30.325Z,60.65
2022-10-31T03:07:04.861Z,60.49
2022-10-31T03:09:37.457Z,60.53
2022-10-31T03:12:08.777Z,60.43
2022-10-31T03:14:42.013Z,60.05
2022-10-31T03:17:12.270Z,60.16
2022-10-31T03:19:43.069Z,60.19
2022-10-31T03:22:17.355Z,59.74
2022-10-31T03:24:44.629Z,59.61
2022-10-31T03:27:14.788Z,59.67
2022-10-31T03:29:44.753Z,59.89
2022-10-31T03:32:17.247Z,59.76
2022-10-31T03:34:46.936Z,59.48
2022-10-31T03:37:17.653Z,59.79
2022-10-31T03:39:46.808Z,59.97
2022-10-31T03:42:16.312Z,60.12
2022-10-31T03:44:48.011Z,60.24
2022-10-31T03:47:14.726Z,60.42
2022-10-31T03:49:41.465Z,60.72
2022-10-31T03:52:19.072Z,61.27
2022-10-31T03:54:47.830Z,61.62
2022-10-31T03:57:20.426Z,62.25
2022-10-31T03:59:51.356Z,62.82
2022-10-31T04:02:22.118Z,62.84
2022-10-31T04:04:50.718Z,63.09
2022-10-31T04:07:20.427Z,62.73
2022-10-31T04:09:50.819Z,62.92
2022-10-31T04:12:18.021Z,63.16
2022-10-31T04:14:48.458Z,63.12
2022-10-31T04:17:17.891Z,63.23
2022-10-31T04:19:44.589Z,63.55
2022-10-31T04:22:11.483Z,63.33
2022-10-31T04:24:41.301Z,63.19
2022-10-31T04:27:08.097Z,63.45
2022-10-31T04:29:34.643Z,63.42
2022-10-31T04:32:01.245Z,63.61
2022-10-31T04:34:29.247Z,63.55
2022-10-31T04:36:55.765Z,63.75
2022-10-31T04:39:25.787Z,63.68
2022-10-31T04:41:54.726Z,63.74
2022-10-31T04:44:21.284Z,63.77
2022-10-31T04:46:48.498Z,63.65
2022-10-31T04:49:14.976Z,63.39
2022-10-31T04:51:41.457Z,63.65
2022-10-31T04:54:08.389Z,63.86
2022-10-31T04:56:34.852Z,63.74
2022-10-31T04:59:03.068Z,63.99
2022-10-31T05:01:32.780Z,63.97
2022-10-31T05:03:59.405Z,64.55
2022-10-31T05:06:25.903Z,64.27
2022-10-31T05:08:52.447Z,64.60
2022-10-31T05:11:18.989Z,64.93
2022-10-31T05:13:45.517Z,64.67
2022-10-31T05:16:13.444Z,64.62
2022-10-31T05:18:39.915Z,64.92
2022-10-31T05:21:06.571Z,64.18
2022-10-31T05:23:33.201Z,64.20
2022-10-31T05:25:59.804Z,64.64
2022-10-31T05:28:26.540Z,64.57
2022-10-31T05:30:53.042Z,64.17
2022-10-31T05:33:21.079Z,64.44
2022-10-31T05:35:47.580Z,64.56
2022-10-31T05:38:14.084Z,64.22
2022-10-31T05:40:40.617Z,64.55
2022-10-31T05:43:07.202Z,64.21
2022-10-31T05:45:33.767Z,64.54
2022-10-31T05:48:02.224Z,64.90
2022-10-31T05:50:32.483Z,64.95
2022-10-31T05:53:00.589Z,64.46
2022-10-31T05:55:27.291Z,64.29
2022-10-31T05:57:54.708Z,64.26
2022-10-31T06:00:22.343Z,64.79
2022-10-31T06:02:49.454Z,64.66
2022-10-31T06:05:16.628Z,64.40
2022-10-31T06:07:44.740Z,64.01
2022-10-31T06:10:11.481Z,64.48
2022-10-31T06:12:38.310Z,64.51
2022-10-31T06:15:07.108Z,64.50
2022-10-31T06:17:35.294Z,64.54
2022-10-31T06:20:02.079Z,64.56
2022-10-31T06:22:29.469Z,64.81
2022-10-31T06:24:57.658Z,64.54
2022-10-31T06:27:25.612Z,64.69
2022-10-31T06:29:54.990Z,64.89
2022-10-31T06:32:21.649Z,64.99
2022-10-31T06:34:48.235Z,64.66
2022-10-31T06:37:15.181Z,64.77
2022-10-31T06:39:41.701Z,64.45
2022-10-31T06:42:10.043Z,64.29
2022-10-31T06:44:37.336Z,64.05
2022-10-31T06:47:41.409Z,64.08
2022-10-31T06:50:13.051Z,63.96
2022-10-31T06:52:40.472Z,63.37
2022-10-31T06:55:15.535Z,63.31
2022-10-31T06:57:57.637Z,63.48
2022-10-31T07:03:29.835Z,63.31
2022-10-31T07:06:01.701Z,62.91
2022-10-31T07:08:31.369Z,62.88
2022-10-31T07:11:06.992Z,62.44
2022-10-31T07:13:35.413Z,62.42
2022-10-31T07:16:08.979Z,62.09
2022-10-31T07:18:43.781Z,61.90
2022-10-31T07:21:16.534Z,61.49
2022-10-31T07:23:49.395Z,61.60
2022-10-31T07:26:18.891Z,61.24
2022-10-31T07:28:48.597Z,60.99
2022-10-31T07:31:15.195Z,60.57
2022-10-31T07:33:43.441Z,60.72
2022-10-31T07:36:14.077Z,60.53
2022-10-31T07:38:40.794Z,60.39
2022-10-31T07:41:07.272Z,60.53
2022-10-31T07:43:33.898Z,60.43
2022-10-31T07:46:01.906Z,60.58
2022-10-31T07:48:28.394Z,60.42
2022-10-31T07:50:56.119Z,60.01
2022-10-31T07:53:22.609Z,59.98
2022-10-31T07:55:49.180Z,59.58
2022-10-31T07:58:17.343Z,59.30
2022-10-31T08:00:45.909Z,58.40
2022-10-31T08:03:15.412Z,58.23
2022-10-31T08:05:42.320Z,58.14
2022-10-31T08:08:09.551Z,57.93
2022-10-31T08:10:37.151Z,57.75
2022-10-31T08:13:05.668Z,57.40
2022-10-31T08:15:32.841Z,56.79
2022-10-31T08:17:59.628Z,56.79
2022-10-31T08:20:27.665Z,56.38
2022-10-31T08:22:55.767Z,56.17
2022-10-31T08:25:22.898Z,55.48
2022-10-31T08:27:50.658Z,55.38
2022-10-31T08:30:17.384Z,54.95
2022-10-31T08:32:43.883Z,54.34
2022-10-31T08:35:10.491Z,53.80
2022-10-31T08:37:38.350Z,53.31
2022-10-31T08:40:06.947Z,53.64
2022-10-31T08:42:33.728Z,53.24
2022-10-31T08:45:00.283Z,53.32
2022-10-31T08:47:26.998Z,52.54
2022-10-31T08:49:53.446Z,52.22
2022-10-31T08:52:29.400Z,51.99
2022-10-31T08:55:11.022Z,52.05
2022-10-31T08:57:37.547Z,51.84
2022-10-31T09:00:04.887Z,52.33
2022-10-31T09:02:31.416Z,51.98
2022-10-31T09:04:58.022Z,52.41
2022-10-31T09:07:24.735Z,52.62
2022-10-31T09:09:51.231Z,52.48
2022-10-31T09:12:19.560Z,52.31
2022-10-31T09:14:46.098Z,52.47
2022-10-31T09:17:12.578Z,52.55
2022-10-31T09:19:39.585Z,52.34
2022-10-31T09:22:06.126Z,52.46
2022-10-31T09:24:32.614Z,52.00
2022-10-31T09:26:59.712Z,51.53
2022-10-31T09:29:27.558Z,51.47
2022-10-31T09:31:54.105Z,51.38
2022-10-31T09:34:20.658Z,50.75
2022-10-31T09:36:47.196Z,50.82
2022-10-31T09:39:13.743Z,51.11
2022-10-31T09:42:01.003Z,50.44
2022-10-31T09:44:37.664Z,50.80
2022-10-31T09:47:12.685Z,50.23
2022-10-31T09:49:57.528Z,49.62
2022-10-31T09:52:27.483Z,49.87
2022-10-31T09:54:59.054Z,49.29
2022-10-31T09:57:31.109Z,49.21
2022-10-31T10:00:00.142Z,49.17
2022-10-31T10:02:31.692Z,48.52
2022-10-31T10:05:01.236Z,48.62
2022-10-31T10:07:36.143Z,48.82
2022-10-31T10:10:13.073Z,49.22
2022-10-31T10:12:56.431Z,48.61
2022-10-31T10:15:38.587Z,48.89
2022-10-31T10:18:18.673Z,49.09
2022-10-31T10:21:04.627Z,49.00
2022-10-31T10:23:42.710Z,48.01
2022-10-31T10:26:16.574Z,48.31
2022-10-31T10:28:45.731Z,47.91
2022-10-31T10:31:16.329Z,47.93
2022-10-31T10:33:48.525Z,48.62
2022-10-31T10:36:19.358Z,48.22
2022-10-31T10:38:51.565Z,47.78
2022-10-31T10:41:19.714Z,47.52
2022-10-31T10:46:28.347Z,47.56
2022-10-31T10:49:01.438Z,47.11
2022-10-31T10:52:02.693Z,46.92
2022-10-31T10:54:42.386Z,46.36
2022-10-31T10:57:30.486Z,45.82
2022-10-31T10:59:58.952Z,45.18
2022-10-31T11:02:31.669Z,45.38
2022-10-31T11:05:00.927Z,45.30
2022-10-31T11:07:39.214Z,45.46
2022-10-31T11:10:06.903Z,45.19
2022-10-31T11:12:34.714Z,44.88
2022-10-31T11:15:06.657Z,44.71
2022-10-31T11:17:38.285Z,45.07
2022-10-31T11:20:22.062Z,44.59
2022-10-31T11:22:50.035Z,44.38
2022-10-31T11:25:22.472Z,44.01
2022-10-31T11:28:00.520Z,43.31
2022-10-31T11:30:29.311Z,43.42
2022-10-31T11:32:59.277Z,42.93
2022-10-31T11:35:26.729Z,43.58
2022-10-31T11:37:55.559Z,43.04
2022-10-31T11:40:24.950Z,42.70
2022-10-31T11:42:56.378Z,43.03
2022-10-31T11:45:30.677Z,43.15
2022-10-31T11:48:00.342Z,42.98
2022-10-31T11:50:30.064Z,42.55
2022-10-31T11:52:56.815Z,43.09
2022-10-31T11:55:34.220Z,42.89
2022-10-31T11:58:01.532Z,42.78
2022-10-31T12:00:30.294Z,42.22
2022-10-31T12:03:14.650Z,42.16
2022-10-31T12:05:43.381Z,42.69
2022-10-31T12:08:11.758Z,42.04
2022-10-31T12:10:49.768Z,41.76
2022-10-31T12:13:31.314Z,41.34
2022-10-31T12:16:06.086Z,41.25
2022-10-31T12:18:48.967Z,41.15
2022-10-31T12:21:35.278Z,40.86
2022-10-31T12:24:14.008Z,40.72
2022-10-31T12:30:45.782Z,41.53
2022-10-31T12:36:54.502Z,40.88
2022-10-31T12:39:38.653Z,40.95
2022-10-31T12:42:20.028Z,40.68
2022-10-31T12:45:08.874Z,40.87
2022-10-31T12:47:49.209Z,41.00
2022-10-31T12:50:29.622Z,41.37
2022-10-31T12:53:14.561Z,41.41
2022-10-31T12:55:54.315Z,41.41
2022-10-31T12:58:24.877Z,41.46
2022-10-31T13:01:02.879Z,41.67
2022-10-31T13:03:33.790Z,41.58
2022-10-31T13:06:53.862Z,41.54
2022-10-31T13:10:01.781Z,41.29
2022-10-31T13:13:06.830Z,41.26
2022-10-31T13:15:48.002Z,41.37
2022-10-31T13:18:26.341Z,41.13
2022-10-31T13:20:55.674Z,40.78
2022-10-31T13:26:24.737Z,40.13
2022-10-31T13:29:00.413Z,39.96
2022-10-31T13:31:27.178Z,40.26
2022-10-31T13:33:57.059Z,40.10
2022-10-31T13:36:32.216Z,39.99
2022-10-31T13:39:09.557Z,39.58
2022-10-31T13:41:45.500Z,39.62
2022-10-31T13:44:16.750Z,39.64
2022-10-31T13:46:44.846Z,39.59
2022-10-31T13:49:41.007Z,40.02
2022-10-31T13:52:15.624Z,40.20
2022-10-31T13:54:44.285Z,40.09
2022-10-31T13:57:19.053Z,39.94
2022-10-31T13:59:50.200Z,39.93
2022-10-31T14:02:20.073Z,40.01
2022-10-31T14:04:50.881Z,40.18
2022-10-31T14:07:20.452Z,40.19
2022-10-31T14:09:55.640Z,40.51
2022-10-31T14:12:33.716Z,40.59
2022-10-31T14:15:05.624Z,41.38
2022-10-31T14:17:39.917Z,41.26
2022-10-31T14:20:40.560Z,41.50
2022-10-31T14:23:32.533Z,41.86
2022-10-31T14:26:18.496Z,42.68
2022-10-31T14:28:48.245Z,43.00
2022-10-31T14:31:30.792Z,43.01
2022-10-31T14:33:57.519Z,43.12
2022-10-31T14:44:04.884Z,42.49
2022-10-31T14:46:45.604Z,42.73
2022-10-31T14:49:27.512Z,42.34
2022-10-31T14:51:54.229Z,42.33
2022-10-31T14:54:31.549Z,42.96
2022-10-31T14:57:05.994Z,43.07
2022-10-31T14:59:37.872Z,43.56
2022-10-31T15:02:15.336Z,43.15
2022-10-31T15:04:46.937Z,42.93
2022-10-31T15:07:34.938Z,43.55
2022-10-31T15:10:08.335Z,43.25
2022-10-31T15:12:51.973Z,43.04
2022-10-31T15:15:22.530Z,42.91
2022-10-31T15:17:57.392Z,42.90
2022-10-31T15:20:31.734Z,43.15
2022-10-31T15:23:00.724Z,43.48
2022-10-31T15:25:35.511Z,43.37
2022-10-31T15:28:15.718Z,43.18
2022-10-31T15:31:01.269Z,42.81
2022-10-31T15:33:38.251Z,42.25
2022-10-31T15:36:08.516Z,42.61
2022-10-31T15:38:36.719Z,42.44
2022-10-31T15:41:06.750Z,42.38
2022-10-31T15:43:49.560Z,42.87
2022-10-31T15:46:28.737Z,42.62
2022-10-31T15:49:10.856Z,42.91
2022-10-31T15:51:54.142Z,42.10
2022-10-31T15:54:28.581Z,41.83
2022-10-31T15:57:14.097Z,42.38
2022-10-31T15:59:53.116Z,42.49
2022-10-31T16:02:25.991Z,42.70
2022-10-31T16:04:57.981Z,42.35
2022-10-31T16:07:29.467Z,42.24
2022-10-31T16:12:46.431Z,43.37
2022-10-31T16:15:21.974Z,43.24
2022-10-31T16:18:12.893Z,43.46
2022-10-31T16:20:49.791Z,43.21
2022-10-31T16:23:29.356Z,43.31
2022-10-31T16:25:57.679Z,43.79
2022-10-31T16:28:33.067Z,43.61
2022-10-31T16:31:22.915Z,43.37
2022-10-31T16:33:50.617Z,43.25
2022-10-31T16:36:40.916Z,43.32
2022-10-31T16:39:08.819Z,43.72
2022-10-31T16:41:43.522Z,43.21
2022-10-31T16:44:26.184Z,42.91
2022-10-31T16:47:11.643Z,43.31
2022-10-31T16:49:39.634Z,43.01
2022-10-31T16:52:13.224Z,43.39
2022-10-31T16:55:06.440Z,43.36
2022-10-31T16:57:40.472Z,43.32
2022-10-31T17:00:20.355Z,43.35
2022-10-31T17:02:56.245Z,43.35
2022-10-31T17:05:54.197Z,43.19
2022-10-31T17:08:45.057Z,43.22
2022-10-31T17:11:34.938Z,42.63
2022-10-31T17:14:05.694Z,42.74
2022-10-31T17:16:38.977Z,42.98
2022-10-31T17:19:14.723Z,43.37
2022-10-31T17:23:27.678Z,43.33
2022-10-31T17:25:56.399Z,44.10
2022-10-31T17:28:43.533Z,43.70
2022-10-31T17:31:47.976Z,43.71
2022-10-31T17:38:16.057Z,44.58
2022-10-31T17:43:49.590Z,44.25
2022-10-31T17:46:41.231Z,44.20
2022-10-31T17:49:08.115Z,43.85
2022-10-31T17:51:44.245Z,43.78
2022-10-31T17:54:34.119Z,44.22
2022-10-31T17:57:17.384Z,43.73
2022-10-31T17:59:44.106Z,43.66
2022-10-31T18:02:11.106Z,43.33
2022-10-31T18:05:30.754Z,43.35
2022-10-31T18:08:03.881Z,43.24
2022-10-31T18:10:34.335Z,43.65
2022-10-31T18:13:22.928Z,44.22
2022-10-31T18:15:49.668Z,44.35
2022-10-31T18:18:16.677Z,43.83
2022-10-31T18:20:43.288Z,44.45
2022-10-31T18:23:11.172Z,44.51
2022-10-31T18:29:10.370Z,44.94
2022-10-31T18:31:36.867Z,44.94
2022-10-31T18:34:05.564Z,45.05
2022-10-31T18:36:32.464Z,44.97
2022-10-31T18:42:25.651Z,45.19
2022-10-31T18:45:00.249Z,45.39
2022-10-31T18:47:33.613Z,45.73
2022-10-31T18:50:00.157Z,45.30
2022-10-31T18:52:27.424Z,45.78
2022-10-31T18:54:54.172Z,45.65
2022-10-31T18:57:21.387Z,45.32
2022-10-31T18:59:48.037Z,45.35
2022-10-31T19:02:18.335Z,45.52
2022-10-31T19:04:46.671Z,45.55
2022-10-31T19:07:13.412Z,45.68
2022-10-31T19:09:41.349Z,45.43
2022-10-31T19:12:11.109Z,45.52
2022-10-31T19:14:38.169Z,45.89
2022-10-31T19:17:07.992Z,46.15
2022-10-31T19:19:38.805Z,46.40
2022-10-31T19:22:10.816Z,46.46
2022-10-31T19:24:38.206Z,46.59
2022-10-31T19:27:05.737Z,46.47
2022-10-31T19:29:32.773Z,46.58
2022-10-31T19:31:59.731Z,46.77
2022-10-31T19:34:29.003Z,46.85
2022-10-31T19:36:58.067Z,47.20
2022-10-31T19:39:25.962Z,47.00
2022-10-31T19:41:53.024Z,47.07
2022-10-31T19:44:20.100Z,47.02
2022-10-31T19:46:54.101Z,46.34
2022-10-31T19:49:21.295Z,46.69
2022-10-31T19:51:48.468Z,47.11
2022-10-31T19:54:18.116Z,46.57
2022-10-31T19:56:45.643Z,46.75
2022-10-31T19:59:17.817Z,46.68
2022-10-31T20:01:44.821Z,46.58
2022-10-31T20:04:12.410Z,46.55
2022-10-31T20:06:42.017Z,46.46
2022-10-31T20:09:28.101Z,46.46
2022-10-31T20:12:00.051Z,46.22
2022-10-31T20:14:27.672Z,46.46
2022-10-31T20:16:56.579Z,46.62
2022-10-31T20:19:24.246Z,46.67
2022-10-31T20:21:51.468Z,46.47
2022-10-31T20:24:19.685Z,47.03
2022-10-31T20:26:48.474Z,47.35
2022-10-31T20:29:16.374Z,46.91
2022-10-31T20:31:44.118Z,46.85
2022-10-31T20:34:10.937Z,46.76
2022-10-31T20:36:37.859Z,47.01
2022-10-31T20:39:07.121Z,46.70
2022-10-31T20:41:37.982Z,47.09
2022-10-31T20:44:06.337Z,47.10
2022-10-31T20:46:34.199Z,46.79
2022-10-31T20:49:01.396Z,47.14
2022-10-31T20:51:30.669Z,47.12
2022-10-31T20:53:59.697Z,47.09
2022-10-31T20:56:27.822Z,46.78
2022-10-31T20:58:55.452Z,46.92
2022-10-31T21:01:27.712Z,46.45
2022-10-31T21:03:57.337Z,46.21
2022-10-31T21:06:24.688Z,46.52
2022-10-31T21:08:54.271Z,46.86
2022-10-31T21:11:23.410Z,47.01
2022-10-31T21:13:51.176Z,46.64
2022-10-31T21:16:20.281Z,46.39
2022-10-31T21:18:50.597Z,46.80
2022-10-31T21:21:18.920Z,46.97
2022-10-31T21:23:45.941Z,47.16
2022-10-31T21:26:16.835Z,47.15
2022-10-31T21:28:43.975Z,48.04
2022-10-31T21:31:12.736Z,47.94
2022-10-31T21:33:40.397Z,47.51
2022-10-31T21:36:09.410Z,47.28
2022-10-31T21:38:37.054Z,47.39
2022-10-31T21:41:06.502Z,47.71
2022-10-31T21:43:35.896Z,47.35
2022-10-31T21:46:05.509Z,47.33
2022-10-31T21:48:32.380Z,47.90
2022-10-31T21:51:03.216Z,47.53
2022-10-31T21:53:32.321Z,47.96
2022-10-31T21:56:02.889Z,48.29
2022-10-31T21:58:33.417Z,48.39
2022-10-31T22:01:03.592Z,48.60
2022-10-31T22:03:30.349Z,48.41
2022-10-31T22:06:02.900Z,48.92
2022-10-31T22:08:34.042Z,49.12
2022-10-31T22:11:02.247Z,48.53
2022-10-31T22:13:29.568Z,48.87
2022-10-31T22:16:00.879Z,49.28
2022-10-31T22:18:27.861Z,49.22
2022-10-31T22:20:54.434Z,49.18
2022-10-31T22:23:30.323Z,48.82
2022-10-31T22:26:02.920Z,49.25
2022-10-31T22:28:34.073Z,49.38
2022-10-31T22:31:04.139Z,49.16
2022-10-31T22:33:39.971Z,48.89
2022-10-31T22:36:11.562Z,49.54
2022-10-31T22:38:41.426Z,49.18
2022-10-31T22:41:14.142Z,49.47
2022-10-31T22:43:41.153Z,50.00
2022-10-31T22:46:13.530Z,49.43
2022-10-31T22:48:42.486Z,49.79
2022-10-31T22:51:12.405Z,50.25
2022-10-31T22:53:39.464Z,49.50
2022-10-31T22:56:09.320Z,49.28
2022-10-31T22:58:37.698Z,49.35
2022-10-31T23:01:09.945Z,48.83
2022-10-31T23:03:37.607Z,49.61
2022-10-31T23:06:05.433Z,49.47
2022-10-31T23:08:35.321Z,50.10
2022-10-31T23:11:02.240Z,49.48
2022-10-31T23:13:29.239Z,49.20
2022-10-31T23:15:57.272Z,49.00
2022-10-31T23:18:48.372Z,49.37
2022-10-31T23:21:12.339Z,49.32
2022-10-31T23:23:39.397Z,50.13
2022-10-31T23:26:06.157Z,49.48
2022-10-31T23:28:33.115Z,49.28
2022-10-31T23:31:02.369Z,49.51
2022-10-31T23:33:31.560Z,49.24
2022-10-31T23:35:58.337Z,50.18
2022-10-31T23:38:26.632Z,49.70
2022-10-31T23:40:53.405Z,50.21
2022-10-31T23:43:20.742Z,50.00
2022-10-31T23:45:47.377Z,49.94
2022-10-31T23:48:16.177Z,50.43
2022-10-31T23:50:42.887Z,51.63
2022-10-31T23:53:09.798Z,51.45
2022-10-31T23:55:38.747Z,52.19
2022-10-31T23:58:05.561Z,52.82
